Time;durP1;ratioP1;P1;durP2;ratioP2;P2;SDS_P1;SDS_P2;PMS_P1;PMS_P2;Temp;Humidity;BMP_temperature;BMP_pressure;BME280_temperature;BME280_humidity;BME280_pressure;Samples;Min_cycle;Max_cycle;Signal;HPM_P1;HPM_P2
2021/10/24 00:02:42;;;;;;;26.48;13.80;;;;;;;2.23;71.99;101768.16;2178905;81;29045;-61
2021/10/24 00:05:44;;;;;;;25.35;13.13;;;;;;;2.21;71.90;101764.17;2190756;80;32187;-62
2021/10/24 00:08:46;;;;;;;28.52;13.15;;;;;;;2.19;71.88;101761.94;2204722;80;33838;-60
2021/10/24 00:11:48;;;;;;;33.78;13.98;;;;;;;2.08;71.91;101758.33;2170897;81;30575;-61
2021/10/24 00:14:50;;;;;;;33.38;13.62;;;;;;;2.03;71.87;101754.75;2168302;80;27705;-62
2021/10/24 00:17:52;;;;;;;26.85;13.80;;;;;;;2.08;71.80;101778.16;2188451;80;29718;-61
2021/10/24 00:20:54;;;;;;;41.60;19.05;;;;;;;2.05;71.83;101790.91;2185720;80;31495;-61
2021/10/24 00:23:57;;;;;;;30.62;13.80;;;;;;;2.02;71.99;101792.63;2166581;80;33349;-59
2021/10/24 00:26:58;;;;;;;31.87;12.10;;;;;;;1.98;71.93;101789.07;2164773;81;29323;-59
2021/10/24 00:30:00;;;;;;;26.40;12.63;;;;;;;1.94;71.86;101792.55;2179268;80;27913;-60
2021/10/24 00:33:05;;;;;;;28.83;12.15;;;;;;;1.91;71.85;101793.83;2176757;81;29133;-59
2021/10/24 00:36:07;;;;;;;24.85;12.85;;;;;;;1.87;71.93;101800.84;2177887;80;31452;-57
2021/10/24 00:39:10;;;;;;;31.57;12.80;;;;;;;1.84;71.87;101801.26;2185902;80;34140;-58
2021/10/24 00:42:12;;;;;;;25.55;13.28;;;;;;;1.79;71.97;101803.41;2205550;80;29693;-57
2021/10/24 00:45:14;;;;;;;24.20;12.30;;;;;;;1.76;72.05;101804.69;2124596;80;27691;-58
2021/10/24 00:48:15;;;;;;;22.48;12.37;;;;;;;1.75;72.06;101802.04;2131505;82;29217;-57
2021/10/24 00:51:20;;;;;;;29.50;12.85;;;;;;;1.72;72.02;101804.22;2175062;80;32255;-58
2021/10/24 00:54:25;;;;;;;25.02;11.80;;;;;;;1.70;72.07;101795.39;2167675;80;34178;-58
2021/10/24 00:57:28;;;;;;;;;;;;;;;1.63;72.01;101781.65;2155442;82;30335;-57
2021/10/24 01:00:30;;;;;;;26.48;13.40;;;;;;;1.63;72.04;101793.12;2154990;81;28011;-58
2021/10/24 01:03:32;;;;;;;28.23;13.48;;;;;;;1.59;72.08;101791.72;2163686;82;29614;-59
2021/10/24 01:06:36;;;;;;;31.50;13.10;;;;;;;1.55;72.16;101798.73;2164054;80;31425;-59
2021/10/24 01:09:38;;;;;;;26.90;13.07;;;;;;;1.53;72.05;101799.59;2165470;80;33768;-57
2021/10/24 01:12:40;;;;;;;25.55;13.55;;;;;;;1.49;72.05;101794.71;2180825;80;29675;-60
2021/10/24 01:15:43;;;;;;;26.57;12.33;;;;;;;1.47;72.11;101793.80;2163999;82;27718;-60
2021/10/24 01:18:45;;;;;;;30.60;12.93;;;;;;;1.46;72.18;101792.03;2164004;82;29856;-59
2021/10/24 01:21:48;;;;;;;28.52;14.58;;;;;;;1.45;72.18;101792.89;2179745;80;31078;-60
2021/10/24 01:24:49;;;;;;;27.32;12.58;;;;;;;1.43;72.18;101792.86;2195802;79;33628;-59
2021/10/24 01:27:53;;;;;;;29.23;12.82;;;;;;;1.40;72.18;101790.62;2163587;82;30510;-61
2021/10/24 01:30:55;;;;;;;23.45;11.53;;;;;;;1.38;72.14;101792.35;2172730;80;27849;-59
2021/10/24 01:33:57;;;;;;;26.05;13.10;;;;;;;1.35;72.14;101790.57;2152256;82;29051;-58
2021/10/24 01:36:59;;;;;;;32.17;13.03;;;;;;;1.31;72.15;101788.33;2153110;82;31029;-61
2021/10/24 01:40:05;;;;;;;31.15;13.93;;;;;;;1.28;72.21;101784.33;2163442;80;33038;-58
2021/10/24 01:43:07;;;;;;;27.80;12.95;;;;;;;1.24;72.22;101789.55;2179580;80;29327;-58
2021/10/24 01:46:09;;;;;;;30.48;14.55;;;;;;;1.21;72.18;101793.02;2152369;82;27713;-59
2021/10/24 01:49:11;;;;;;;27.32;14.30;;;;;;;1.19;72.20;101785.51;2153871;80;30020;-58
2021/10/24 01:52:13;;;;;;;33.05;15.13;;;;;;;1.16;72.18;101783.73;2147113;80;31155;-58
2021/10/24 01:55:15;;;;;;;31.62;15.40;;;;;;;1.14;72.24;101784.13;2111284;83;33345;-59
2021/10/24 01:58:18;;;;;;;28.12;14.18;;;;;;;1.12;72.30;101791.14;2121574;83;29326;-58
2021/10/24 02:01:19;;;;;;;23.92;13.58;;;;;;;1.11;72.27;101789.81;2152598;82;27611;-58
2021/10/24 02:04:21;;;;;;;35.65;16.30;;;;;;;1.09;72.27;101784.95;2163777;81;28825;-59
2021/10/24 02:07:23;;;;;;;30.60;16.75;;;;;;;1.06;72.26;101787.12;2133998;82;31419;-58
2021/10/24 02:10:25;;;;;;;31.73;16.40;;;;;;;1.04;72.27;101796.31;2132409;82;33095;-59
2021/10/24 02:13:27;;;;;;;36.75;17.40;;;;;;;1.01;72.28;101801.55;2147013;82;30654;-59
2021/10/24 02:16:28;;;;;;;34.03;17.52;;;;;;;0.99;72.33;101802.40;2146196;82;27617;-57
2021/10/24 02:19:30;;;;;;;28.60;16.73;;;;;;;0.97;72.40;101802.80;2150451;82;29079;-58
2021/10/24 02:22:32;;;;;;;26.20;15.30;;;;;;;0.94;72.48;101799.70;2148388;81;31454;-58
2021/10/24 02:25:37;;;;;;;26.77;14.78;;;;;;;0.92;72.50;101794.83;2144699;82;34067;-57
2021/10/24 02:28:39;;;;;;;31.07;16.30;;;;;;;0.89;72.46;101799.64;2145179;82;29055;-58
2021/10/24 02:31:40;;;;;;;32.55;16.37;;;;;;;0.89;72.56;101804.02;2146565;82;27703;-58
2021/10/24 02:34:43;;;;;;;31.10;16.55;;;;;;;0.87;72.63;101801.36;2145217;82;29063;-57
2021/10/24 02:37:45;;;;;;;34.83;17.55;;;;;;;0.88;72.63;101807.52;2144265;82;31490;-58
2021/10/24 02:40:47;;;;;;;27.50;14.83;;;;;;;0.88;72.61;101808.83;2145969;82;33372;-58
2021/10/24 02:43:49;;;;;;;28.60;15.45;;;;;;;0.86;72.63;101814.10;2144893;83;29384;-57
2021/10/24 02:46:52;;;;;;;27.82;14.95;;;;;;;0.85;72.79;101816.69;2163011;82;27688;-58
2021/10/24 02:49:54;;;;;;;32.48;15.50;;;;;;;0.84;72.74;101814.92;2161761;82;28639;-58
2021/10/24 02:52:55;;;;;;;30.77;15.18;;;;;;;0.82;72.73;101817.55;2145266;82;31387;-59
2021/10/24 02:55:57;;;;;;;26.25;15.00;;;;;;;0.82;72.69;101818.00;2147576;82;32803;-59
2021/10/24 02:58:59;;;;;;;27.75;14.80;;;;;;;0.81;72.71;101826.77;2147495;82;30591;-59
2021/10/24 03:02:01;;;;;;;29.55;16.73;;;;;;;0.81;72.75;101830.73;2147452;82;27708;-59
2021/10/24 03:05:07;;;;;;;26.20;14.87;;;;;;;0.79;72.71;101830.69;2140378;82;29107;-60
2021/10/24 03:08:09;;;;;;;32.63;15.13;;;;;;;0.78;72.72;101831.55;2120350;82;31131;-59
2021/10/24 03:11:12;;;;;;;24.27;14.28;;;;;;;0.78;72.75;101834.63;2147950;82;34144;-61
2021/10/24 03:14:14;;;;;;;34.30;15.30;;;;;;;0.78;72.75;101834.18;2152956;82;30290;-59
2021/10/24 03:17:16;;;;;;;29.98;15.18;;;;;;;0.77;72.74;101836.36;2120640;82;27743;-57
2021/10/24 03:20:18;;;;;;;28.52;14.98;;;;;;;0.75;72.75;101840.31;2126614;82;29929;-57
2021/10/24 03:23:20;;;;;;;27.73;14.73;;;;;;;0.77;72.77;101842.08;2146002;82;31865;-59
2021/10/24 03:26:22;;;;;;;26.73;14.58;;;;;;;0.74;72.77;101834.58;2146285;82;33767;-58
2021/10/24 03:29:23;;;;;;;31.60;15.00;;;;;;;0.74;72.70;101831.94;2148133;82;30496;-57
2021/10/24 03:32:26;;;;;;;24.23;14.58;;;;;;;0.75;72.77;101831.48;2133124;82;27646;-58
2021/10/24 03:35:28;;;;;;;26.90;13.45;;;;;;;0.73;72.67;101834.56;2119763;82;28818;-59
2021/10/24 03:38:30;;;;;;;27.25;13.78;;;;;;;0.72;72.65;101833.66;2127309;82;32241;-59
2021/10/24 03:41:32;;;;;;;26.87;14.38;;;;;;;0.69;72.56;101840.20;2147084;82;33402;-58
2021/10/24 03:44:34;;;;;;;21.48;13.10;;;;;;;0.67;72.61;101837.96;2141008;82;30175;-57
2021/10/24 03:47:36;;;;;;;25.75;13.25;;;;;;;0.67;72.68;101837.09;2149219;82;27693;-62
2021/10/24 03:50:39;;;;;;;26.42;13.53;;;;;;;0.65;72.69;101834.44;2148709;80;29052;-60
2021/10/24 03:53:40;;;;;;;29.40;14.47;;;;;;;0.63;72.66;101837.89;2133846;82;31901;-59
2021/10/24 03:56:43;;;;;;;24.32;13.98;;;;;;;0.60;72.69;101832.15;2152216;82;33905;-59
2021/10/24 03:59:44;;;;;;;23.20;12.68;;;;;;;0.56;72.72;101830.31;2146737;82;30519;-65
2021/10/24 04:03:00;;;;;;;24.18;12.50;;;;;;;0.54;72.68;101828.08;2148885;82;27686;-60
2021/10/24 04:06:05;;;;;;;23.05;13.32;;;;;;;0.53;72.73;101836.85;2146742;82;28657;-58
2021/10/24 04:09:10;;;;;;;24.43;12.80;;;;;;;0.43;72.84;101832.75;2136501;82;31065;-58
2021/10/24 04:12:12;;;;;;;28.83;14.28;;;;;;;0.48;72.82;101844.69;2145902;82;34095;-58
2021/10/24 04:15:15;;;;;;;23.67;13.50;;;;;;;0.46;72.83;101845.09;2160232;82;30301;-58
2021/10/24 04:18:17;;;;;;;28.87;14.30;;;;;;;0.44;72.78;101842.85;2157274;82;27651;-61
2021/10/24 04:21:19;;;;;;;25.17;13.53;;;;;;;0.43;72.77;101845.03;2144448;82;29876;-59
2021/10/24 04:24:21;;;;;;;32.05;15.50;;;;;;;0.39;72.78;101840.59;2144721;83;31069;-59
2021/10/24 04:27:23;;;;;;;22.48;14.00;;;;;;;0.38;72.89;101842.77;2144821;82;34102;-59
2021/10/24 04:30:26;;;;;;;29.90;16.60;;;;;;;0.36;72.87;101837.89;2144107;82;29732;-59
2021/10/24 04:33:28;;;;;;;27.98;17.23;;;;;;;0.35;72.90;101835.67;2145144;82;27682;-60
2021/10/24 04:36:30;;;;;;;28.92;16.95;;;;;;;0.35;72.82;101840.08;2144637;83;29659;-57
2021/10/24 04:39:31;;;;;;;33.33;18.32;;;;;;;0.33;72.81;101842.70;2146193;82;30822;-59
2021/10/24 04:42:35;;;;;;;43.28;21.70;;;;;;;0.32;72.87;101845.28;2146302;82;32954;-58
2021/10/24 04:45:38;;;;;;;32.03;19.48;;;;;;;0.29;72.94;101848.32;2144888;83;29345;-59
2021/10/24 04:48:40;;;;;;;39.30;21.15;;;;;;;0.28;72.94;101854.45;2147099;82;27693;-59
2021/10/24 04:51:41;;;;;;;42.10;21.85;;;;;;;0.27;72.99;101859.27;2148952;82;29938;-58
2021/10/24 04:54:43;;;;;;;40.98;22.52;;;;;;;0.26;73.06;101859.25;2158073;82;32536;-58
2021/10/24 04:57:45;;;;;;;43.45;24.32;;;;;;;0.25;73.06;101853.52;2173907;80;33771;-59
2021/10/24 05:00:47;;;;;;;47.23;25.43;;;;;;;0.24;73.08;101855.69;2155230;82;30327;-58
2021/10/24 05:03:49;;;;;;;52.23;30.12;;;;;;;0.23;73.08;101853.50;2155859;81;27688;-58
2021/10/24 05:06:51;;;;;;;62.83;32.78;;;;;;;0.22;73.06;101862.67;2160330;80;29902;-58
2021/10/24 05:09:53;;;;;;;57.50;30.37;;;;;;;0.20;73.26;101857.80;2168619;80;32402;-57
2021/10/24 05:12:55;;;;;;;58.00;31.33;;;;;;;0.20;73.25;101857.39;2167506;82;33388;-58
2021/10/24 05:15:57;;;;;;;58.15;31.40;;;;;;;0.21;73.20;101862.22;2184360;80;30459;-62
2021/10/24 05:18:58;;;;;;;61.95;30.62;;;;;;;0.20;73.24;101857.39;2210771;80;27741;-60
2021/10/24 05:22:00;;;;;;;60.92;29.57;;;;;;;0.20;73.26;101857.39;2210301;80;29069;-58
2021/10/24 05:25:03;;;;;;;60.60;29.57;;;;;;;0.21;73.25;101863.13;2166996;80;32209;-57
2021/10/24 05:28:05;;;;;;;62.73;31.05;;;;;;;0.21;73.30;101858.27;2169547;80;33171;-56
2021/10/24 05:31:07;;;;;;;61.25;31.05;;;;;;;0.23;73.37;101860.09;2167218;82;30547;-55
2021/10/24 05:34:09;;;;;;;70.30;36.42;;;;;;;0.26;73.35;101867.16;2189194;80;27692;-55
2021/10/24 05:37:11;;;;;;;76.47;35.17;;;;;;;0.26;73.35;101863.20;2188561;80;29242;-56
2021/10/24 05:40:13;;;;;;;69.05;34.18;;;;;;;0.28;73.40;101865.44;2196726;80;32216;-55
2021/10/24 05:43:16;;;;;;;67.40;34.03;;;;;;;0.29;73.33;101869.41;2200201;80;33506;-54
2021/10/24 05:46:18;;;;;;;75.83;38.55;;;;;;;0.32;73.37;101873.87;2164573;80;29108;-56
2021/10/24 05:49:21;;;;;;;71.62;36.65;;;;;;;0.33;73.39;101878.28;2179335;80;27662;-55
2021/10/24 05:52:23;;;;;;;71.42;33.50;;;;;;;0.36;73.41;101878.31;2189544;81;29887;-54
2021/10/24 05:55:25;;;;;;;71.12;32.53;;;;;;;0.40;73.39;101879.28;2191776;80;32069;-56
2021/10/24 05:58:28;;;;;;;65.28;33.53;;;;;;;0.45;73.39;101883.77;2188499;80;34394;-56
2021/10/24 06:01:30;;;;;;;80.45;35.70;;;;;;;0.51;73.40;101891.30;2186373;80;30315;-56
2021/10/24 06:04:31;;;;;;;84.67;39.27;;;;;;;0.57;73.39;101891.42;2187813;80;27755;-57
2021/10/24 06:07:35;;;;;;;98.90;41.00;;;;;;;0.62;73.56;101895.04;2192257;79;29878;-57
2021/10/24 06:10:39;;;;;;;88.30;41.45;;;;;;;0.69;73.64;101898.22;2186745;81;31063;-55
2021/10/24 06:13:42;;;;;;;89.15;40.28;;;;;;;0.78;73.63;101911.13;2186656;81;33622;-56
2021/10/24 06:16:44;;;;;;;95.35;44.55;;;;;;;0.84;73.64;101904.20;2187379;80;29321;-55
2021/10/24 06:19:46;;;;;;;99.60;45.03;;;;;;;0.95;73.66;101923.27;2188555;80;27584;-56
2021/10/24 06:22:48;;;;;;;95.85;46.58;;;;;;;1.02;73.66;101924.71;2199338;80;29569;-56
2021/10/24 06:25:50;;;;;;;74.58;35.25;;;;;;;1.11;73.60;101931.89;2179175;80;32386;-57
2021/10/24 06:28:52;;;;;;;75.40;34.90;;;;;;;1.21;73.79;101940.84;2215288;80;34187;-57
2021/10/24 06:31:53;;;;;;;73.45;34.75;;;;;;;1.29;73.86;101935.27;2212621;80;29682;-58
2021/10/24 06:34:55;;;;;;;85.40;39.65;;;;;;;1.40;73.92;101938.08;2162765;80;27649;-63
2021/10/24 06:37:57;;;;;;;110.10;49.75;;;;;;;1.52;73.91;101939.98;2191244;79;28691;-59
2021/10/24 06:40:59;;;;;;;107.00;51.77;;;;;;;1.68;73.94;101945.06;2213310;80;32379;-57
2021/10/24 06:44:01;;;;;;;70.65;36.30;;;;;;;1.90;73.99;101945.36;2211951;80;33378;-58
2021/10/24 06:47:03;;;;;;;55.23;29.77;;;;;;;2.10;73.92;101945.60;2198341;80;30654;-59
2021/10/24 06:50:07;;;;;;;48.98;28.38;;;;;;;2.30;73.84;101947.59;2161667;81;27587;-57
2021/10/24 06:53:09;;;;;;;45.85;27.50;;;;;;;2.45;73.65;101942.89;2209272;79;28790;-57
2021/10/24 06:56:11;;;;;;;52.10;27.60;;;;;;;2.56;73.61;101951.85;2196752;80;31886;-57
2021/10/24 06:59:13;;;;;;;53.52;29.95;;;;;;;2.69;73.64;101951.09;2200179;80;33357;-60
2021/10/24 07:02:17;;;;;;;53.63;27.35;;;;;;;2.85;73.63;101957.41;2176732;81;29839;-60
2021/10/24 07:05:20;;;;;;;50.33;26.82;;;;;;;3.02;73.78;101954.92;2179268;81;27972;-58
2021/10/24 07:08:22;;;;;;;52.03;27.32;;;;;;;3.32;73.96;101960.01;2191634;80;29916;-62
2021/10/24 07:11:24;;;;;;;49.25;26.97;;;;;;;3.62;73.88;101956.23;2198358;80;32313;-61
2021/10/24 07:14:27;;;;;;;37.70;21.77;;;;;;;3.89;73.64;101954.60;2216509;79;33000;-60
2021/10/24 07:17:28;;;;;;;37.78;22.65;;;;;;;4.12;73.15;101961.34;2207741;80;29509;-56
2021/10/24 07:20:31;;;;;;;46.42;24.00;;;;;;;4.32;73.19;101956.55;2200330;79;28153;-61
2021/10/24 07:23:33;;;;;;;41.85;24.18;;;;;;;4.53;73.14;101959.27;2200683;80;29127;-56
2021/10/24 07:26:35;;;;;;;40.25;24.25;;;;;;;4.72;72.72;101955.30;2214228;79;31577;-56
2021/10/24 07:29:37;;;;;;;43.87;25.90;;;;;;;4.89;72.70;101954.00;2197990;80;32565;-59
2021/10/24 07:32:40;;;;;;;40.40;24.25;;;;;;;5.17;72.62;101960.22;2199662;80;30445;-59
2021/10/24 07:35:42;;;;;;;41.23;26.25;;;;;;;5.52;72.61;101961.05;2199880;80;28020;-56
2021/10/24 07:38:44;;;;;;;41.75;25.80;;;;;;;5.84;72.10;101963.20;2202100;80;29505;-57
2021/10/24 07:41:47;;;;;;;40.48;25.95;;;;;;;6.10;71.93;101957.83;2183377;80;30671;-59
2021/10/24 07:44:49;;;;;;;43.95;28.25;;;;;;;6.37;71.56;101951.92;2180531;80;32988;-57
2021/10/24 07:47:51;;;;;;;42.50;26.62;;;;;;;6.63;71.20;101963.75;2211589;80;29312;-57
2021/10/24 07:50:54;;;;;;;46.90;29.90;;;;;;;6.88;70.84;101969.36;2199642;79;28137;-57
2021/10/24 07:53:55;;;;;;;49.63;29.55;;;;;;;7.14;70.68;101966.03;2149323;82;29436;-61
2021/10/24 07:56:58;;;;;;;53.48;32.67;;;;;;;7.35;70.36;101965.42;2143439;83;30595;-59
2021/10/24 08:00:00;;;;;;;52.48;29.92;;;;;;;7.50;70.19;101964.40;2142756;82;33827;-61
2021/10/24 08:03:07;;;;;;;49.23;28.87;;;;;;;7.66;70.12;101963.77;2146163;81;30490;-57
2021/10/24 08:06:09;;;;;;;49.08;29.18;;;;;;;7.83;69.72;101968.05;2135092;82;27618;-56
2021/10/24 08:09:12;;;;;;;49.98;27.85;;;;;;;8.03;69.73;101968.70;2133642;83;29866;-57
2021/10/24 08:12:14;;;;;;;44.60;26.35;;;;;;;8.16;69.33;101965.87;2133141;81;32043;-57
2021/10/24 08:15:16;;;;;;;47.58;28.50;;;;;;;8.24;69.15;101969.34;2133104;83;35076;-60
2021/10/24 08:18:18;;;;;;;45.88;26.02;;;;;;;8.31;69.13;101966.14;2134653;82;30660;-56
2021/10/24 08:21:21;;;;;;;49.98;28.20;;;;;;;8.40;68.90;101966.47;2133399;82;27680;-57
2021/10/24 08:24:23;;;;;;;41.25;26.82;;;;;;;8.45;69.08;101965.93;2133167;82;28111;-56
2021/10/24 08:27:26;;;;;;;44.55;23.65;;;;;;;8.56;69.12;101972.06;2135106;82;32503;-57
2021/10/24 08:30:28;;;;;;;37.45;21.48;;;;;;;8.65;68.79;101967.91;2159443;82;33768;-57
2021/10/24 08:33:30;;;;;;;37.17;23.52;;;;;;;8.73;68.56;101966.92;2158976;82;30155;-56
2021/10/24 08:36:33;;;;;;;38.70;23.27;;;;;;;8.79;68.61;101966.38;2159514;82;27662;-56
2021/10/24 08:39:36;;;;;;;34.78;21.25;;;;;;;8.89;68.38;101962.21;2157719;82;28652;-57
2021/10/24 08:42:41;;;;;;;37.98;21.12;;;;;;;8.96;68.57;101958.55;2157855;81;32032;-53
2021/10/24 08:45:45;;;;;;;38.67;21.42;;;;;;;9.05;68.57;101965.06;2157737;82;33607;-55
2021/10/24 08:48:51;;;;;;;42.62;20.65;;;;;;;9.13;68.50;101963.60;2157759;81;29406;-55
2021/10/24 08:51:53;;;;;;;38.92;19.57;;;;;;;9.16;68.13;101963.55;2157695;81;27669;-56
2021/10/24 08:54:55;;;;;;;35.33;19.17;;;;;;;9.20;68.41;101967.95;2163120;80;29499;-57
2021/10/24 08:57:58;;;;;;;36.17;20.25;;;;;;;9.26;68.22;101966.95;2161979;82;30457;-55
2021/10/24 09:01:00;;;;;;;47.55;22.58;;;;;;;9.32;68.22;101967.30;2155908;82;33815;-57
2021/10/24 09:04:15;;;;;;;36.25;18.02;;;;;;;9.40;68.24;101962.25;2146627;82;30093;-58
2021/10/24 09:07:19;;;;;;;24.55;14.05;;;;;;;9.49;68.16;101963.88;2125465;81;27713;-57
2021/10/24 09:10:41;;;;;;;27.87;15.35;;;;;;;9.57;67.76;101965.97;2114518;84;28722;-58
2021/10/24 09:13:47;;;;;;;30.40;16.30;;;;;;;9.61;67.87;101955.19;2117438;83;32443;-56
2021/10/24 09:16:52;;;;;;;;;;;;;;;9.69;67.89;101944.76;2097615;84;33416;-57
2021/10/24 09:19:58;;;;;;;24.15;13.40;;;;;;;9.78;67.89;101946.84;2153171;82;30070;-57
2021/10/24 09:23:08;;;;;;;31.65;14.23;;;;;;;9.84;67.27;101948.94;2147435;82;27677;-56
2021/10/24 09:26:23;;;;;;;25.95;13.48;;;;;;;9.93;67.46;101945.20;2146193;83;29385;-57
2021/10/24 09:29:25;;;;;;;22.15;10.13;;;;;;;10.00;67.23;101941.50;2142601;82;31025;-57
2021/10/24 09:33:10;;;;;;;22.65;10.23;;;;;;;10.10;67.06;101942.63;2132734;83;34252;-57
2021/10/24 09:36:12;;;;;;;22.30;10.28;;;;;;;10.22;67.13;101943.70;2124977;82;29756;-56
2021/10/24 09:39:15;;;;;;;26.07;11.08;;;;;;;10.31;66.17;101942.61;2146618;82;27751;-56
2021/10/24 09:42:22;;;;;;;22.77;10.28;;;;;;;10.35;66.72;101936.28;2146348;83;28060;-54
2021/10/24 09:45:25;;;;;;;16.27;9.63;;;;;;;10.42;66.39;101936.61;2146428;82;31493;-57
2021/10/24 09:48:33;;;;;;;19.57;9.20;;;;;;;10.48;66.01;101936.45;2145989;82;34164;-55
2021/10/24 09:51:35;;;;;;;21.35;9.10;;;;;;;10.54;66.16;101934.09;2146499;82;29694;-55
2021/10/24 09:54:41;;;;;;;20.48;8.83;;;;;;;10.59;66.21;101936.21;2146165;82;27726;-57
2021/10/24 09:57:45;;;;;;;20.97;8.85;;;;;;;10.62;65.52;101932.13;2114960;83;28636;-56
2021/10/24 10:00:47;;;;;;;15.38;6.85;;;;;;;10.70;65.42;101925.69;2161941;82;31105;-57
2021/10/24 10:03:50;;;;;;;20.77;8.40;;;;;;;10.71;65.43;101923.42;2148367;81;34122;-57
2021/10/24 10:06:52;;;;;;;23.73;7.20;;;;;;;10.78;65.68;101931.28;2146348;82;30191;-57
2021/10/24 10:09:56;;;;;;;17.82;6.95;;;;;;;10.89;65.71;101931.03;2146337;82;27606;-55
2021/10/24 10:13:02;;;;;;;18.70;6.17;;;;;;;11.01;65.35;101924.92;2146443;82;29846;-56
2021/10/24 10:16:08;;;;;;;20.45;6.25;;;;;;;11.05;64.71;101918.58;2115049;83;31035;-55
2021/10/24 10:19:12;;;;;;;12.70;5.55;;;;;;;11.14;64.42;101917.02;2108691;84;33372;-57
2021/10/24 10:22:31;;;;;;;12.50;5.35;;;;;;;11.17;63.69;101917.38;2124739;83;29319;-58
2021/10/24 10:25:36;;;;;;;14.18;6.03;;;;;;;11.06;63.25;101913.19;2140571;83;27663;-56
2021/10/24 10:28:47;;;;;;;16.32;5.17;;;;;;;11.03;63.56;101908.34;2141167;83;28713;-56
2021/10/24 10:32:13;;;;;;;16.52;5.53;;;;;;;10.99;63.17;101908.02;2146403;82;31084;-57
2021/10/24 10:35:17;;;;;;;14.95;4.97;;;;;;;11.03;63.72;101907.00;2127714;82;33779;-57
2021/10/24 10:38:40;;;;;;;20.25;5.58;;;;;;;11.13;63.11;101898.26;2113140;83;30255;-62
2021/10/24 10:41:43;;;;;;;18.48;6.30;;;;;;;11.23;63.38;101902.00;2143877;83;27618;-64
2021/10/24 10:45:24;;;;;;;16.00;5.10;;;;;;;11.34;63.23;101894.11;2146572;82;29865;-65
2021/10/24 10:48:46;;;;;;;12.82;4.00;;;;;;;11.43;62.87;101890.30;2145715;82;32322;-59
2021/10/24 10:51:51;;;;;;;15.75;4.28;;;;;;;11.54;62.46;101891.77;2146329;82;33000;-68
2021/10/24 10:54:59;;;;;;;16.10;4.97;;;;;;;11.61;62.17;101889.79;2148203;81;29395;-71
2021/10/24 10:58:33;;;;;;;15.10;4.87;;;;;;;11.58;61.49;101880.95;2126174;83;27704;-60
2021/10/24 11:01:39;;;;;;;17.35;6.22;;;;;;;11.52;61.17;101888.24;2158427;82;29547;-59
2021/10/24 11:05:03;;;;;;;9.73;5.15;;;;;;;11.53;61.34;101877.92;2156773;82;31013;-59
2021/10/24 11:08:35;;;;;;;12.43;4.00;;;;;;;11.49;61.16;101879.41;2147208;82;33126;-59
2021/10/24 11:11:45;;;;;;;10.70;3.30;;;;;;;11.50;61.15;101882.52;2033968;87;30211;-59
2021/10/24 11:14:47;;;;;;;15.03;4.17;;;;;;;11.61;61.26;101883.55;2007513;88;27893;-58
2021/10/24 11:17:49;;;;;;;15.28;3.55;;;;;;;11.69;60.60;101881.52;2026166;87;30025;-58
2021/10/24 11:20:51;;;;;;;12.90;4.33;;;;;;;11.76;60.21;101876.84;2026313;87;32244;-58
2021/10/24 11:23:58;;;;;;;15.83;4.42;;;;;;;11.84;59.88;101874.83;2033256;87;33665;-59
2021/10/24 11:27:04;;;;;;;9.13;4.10;;;;;;;11.87;59.38;101874.75;2034011;87;29516;-62
2021/10/24 11:30:14;;;;;;;10.93;4.33;;;;;;;11.89;59.84;101873.34;2034365;87;27687;-60
2021/10/24 11:33:12;;;;;;;13.32;4.00;;;;;;;11.93;59.74;101865.62;2009981;88;28231;-68
2021/10/24 11:36:23;;;;;;;16.67;5.22;;;;;;;11.94;59.42;101865.56;2037088;87;31392;-65
2021/10/24 11:39:25;;;;;;;13.62;3.92;;;;;;;11.89;57.77;101858.13;2015047;88;33404;-65
2021/10/24 11:42:27;;;;;;;10.38;3.37;;;;;;;11.83;57.90;101852.92;2055539;84;30120;-61
2021/10/24 11:45:34;;;;;;;9.68;2.87;;;;;;;11.79;56.90;101848.13;2079025;84;27720;-67
2021/10/24 11:48:36;;;;;;;11.97;3.85;;;;;;;11.79;57.64;101848.13;2101144;84;29872;-68
2021/10/24 11:51:40;;;;;;;15.90;3.55;;;;;;;11.81;57.14;101840.91;2119551;83;32301;-63
2021/10/24 11:55:07;;;;;;;10.10;3.47;;;;;;;11.82;57.25;101837.74;2122623;82;33882;-64
2021/10/24 12:01:27;;;;;;;11.03;3.25;;;;;;;11.87;57.01;101838.49;2179959;80;27715;-72
2021/10/24 12:04:29;;;;;;;8.53;3.20;;;;;;;11.90;56.40;101833.03;2176917;81;29838;-66
2021/10/24 12:07:31;;;;;;;10.53;3.27;;;;;;;11.89;56.09;101833.06;2142385;81;31468;-77
2021/10/24 12:10:42;;;;;;;7.60;3.10;;;;;;;11.89;55.84;101827.25;2162229;81;35093;-63
2021/10/24 12:13:46;;;;;;;11.08;2.83;;;;;;;11.90;55.98;101821.40;2177705;81;30684;-76
2021/10/24 12:16:48;;;;;;;11.35;2.85;;;;;;;11.95;55.92;101823.48;2174540;81;27712;-70
2021/10/24 12:20:19;;;;;;;10.88;2.65;;;;;;;11.96;55.91;101819.40;2164865;82;29892;-64
2021/10/24 12:23:21;;;;;;;9.33;3.02;;;;;;;11.91;54.52;101798.55;2128758;83;31842;-72
2021/10/24 12:26:33;;;;;;;9.83;3.10;;;;;;;11.93;54.94;101811.42;2128556;83;33756;-60
2021/10/24 12:29:36;;;;;;;6.92;2.58;;;;;;;11.88;54.53;101802.66;2128594;83;29433;-80
2021/10/24 12:33:06;;;;;;;11.28;2.95;;;;;;;11.85;54.88;101800.06;2140451;82;27693;-62
2021/10/24 12:36:08;;;;;;;9.38;2.80;;;;;;;11.87;55.29;101791.50;2165427;81;28655;-66
2021/10/24 12:39:23;;;;;;;6.33;2.10;;;;;;;11.91;54.91;101782.43;2165776;82;31833;-65
2021/10/24 12:42:25;;;;;;;11.67;3.67;;;;;;;11.95;53.83;101771.12;2164611;82;33000;-71
2021/10/24 12:45:27;;;;;;;15.03;2.75;;;;;;;11.95;54.57;101784.06;2165270;82;30527;-69
2021/10/24 12:48:44;;;;;;;7.70;2.55;;;;;;;11.93;53.94;101779.68;2165687;82;27685;-68
2021/10/24 12:51:50;;;;;;;8.35;2.72;;;;;;;11.93;54.03;101772.97;2165615;82;30781;-60
2021/10/24 12:55:00;;;;;;;7.25;2.67;;;;;;;11.87;53.58;101760.62;2141202;82;31054;-66
2021/10/24 12:58:02;;;;;;;14.45;7.62;;;;;;;11.86;54.40;101761.55;2134796;83;33394;-58
2021/10/24 13:01:04;;;;;;;8.40;2.58;;;;;;;11.90;54.61;101755.60;2120878;83;29133;-66
2021/10/24 13:04:06;;;;;;;7.28;2.70;;;;;;;11.91;53.91;101752.89;2135384;83;27698;-69
2021/10/24 13:07:08;;;;;;;8.13;2.75;;;;;;;11.86;53.31;101750.32;2146252;82;29832;-64
2021/10/24 13:10:10;;;;;;;9.23;3.08;;;;;;;11.82;53.18;101745.11;2146220;83;31385;-70
2021/10/24 13:13:12;;;;;;;8.50;2.50;;;;;;;11.78;53.29;101740.75;2145150;83;35137;-68
2021/10/24 13:16:14;;;;;;;8.63;3.27;;;;;;;11.76;53.67;101732.76;2146281;83;28633;-62
2021/10/24 13:19:16;;;;;;;11.50;3.27;;;;;;;11.77;53.53;101732.28;2146304;82;28269;-67
2021/10/24 13:25:38;;;;;;;9.15;2.83;;;;;;;11.76;53.48;101723.36;2120494;84;31853;-63
2021/10/24 13:28:42;;;;;;;8.95;3.45;;;;;;;11.74;53.63;101720.32;2120733;82;33319;-69
2021/10/24 13:31:44;;;;;;;11.60;4.83;;;;;;;11.72;53.45;101719.00;2120947;82;29539;-67
2021/10/24 13:34:46;;;;;;;10.90;3.05;;;;;;;11.69;53.58;101707.02;2145579;82;27638;-67
2021/10/24 13:37:48;;;;;;;6.30;2.58;;;;;;;11.69;53.30;101700.30;2145866;83;29863;-59
2021/10/24 13:40:50;;;;;;;11.35;2.95;;;;;;;11.67;53.21;101695.45;2140881;83;31022;-60
2021/10/24 13:43:52;;;;;;;11.63;3.20;;;;;;;11.67;53.55;101695.45;2135938;83;33890;-70
2021/10/24 13:46:54;;;;;;;12.33;3.10;;;;;;;11.64;53.00;101691.55;2139870;83;30524;-77
2021/10/24 13:49:55;;;;;;;9.38;3.00;;;;;;;11.59;51.99;101693.00;2117702;82;27583;-71
2021/10/24 13:52:57;;;;;;;7.75;2.95;;;;;;;11.55;52.17;101682.84;2152798;82;28749;-65
2021/10/24 13:55:59;;;;;;;11.60;3.35;;;;;;;11.53;52.06;101674.43;2150405;81;32318;-59
2021/10/24 13:59:03;;;;;;;7.08;2.75;;;;;;;11.49;51.81;101680.81;2149189;82;32959;-66
2021/10/24 14:02:05;;;;;;;7.95;2.40;;;;;;;11.49;52.07;101680.37;2149466;82;29378;-72
2021/10/24 14:05:08;;;;;;;10.13;2.37;;;;;;;11.47;51.44;101679.98;2149052;82;27638;-66
2021/10/24 14:08:09;;;;;;;10.88;2.30;;;;;;;11.45;51.35;101673.78;2149536;82;29314;-64
2021/10/24 14:11:11;;;;;;;8.23;2.58;;;;;;;11.43;51.01;101675.62;2146871;82;32244;-74
2021/10/24 14:14:13;;;;;;;4.87;2.50;;;;;;;11.40;51.36;101669.91;2148972;82;34179;-62
2021/10/24 14:17:15;;;;;;;9.83;2.62;;;;;;;11.34;51.34;101662.92;2149005;82;29751;-66